createdAt,value
2022-10-05T00:01:44.032Z,64.84
2022-10-05T00:04:15.696Z,64.74
2022-10-05T00:06:55.660Z,64.85
2022-10-05T00:09:22.073Z,64.90
2022-10-05T00:11:49.107Z,65.05
2022-10-05T00:14:32.048Z,65.15
2022-10-05T00:16:58.485Z,65.81
2022-10-05T00:19:35.051Z,65.39
2022-10-05T00:22:09.474Z,65.77
2022-10-05T00:24:35.964Z,65.49
2022-10-05T00:27:12.432Z,65.49
2022-10-05T00:29:39.058Z,65.63
2022-10-05T00:32:05.525Z,65.48
2022-10-05T00:34:33.745Z,65.87
2022-10-05T00:37:00.059Z,65.84
2022-10-05T00:39:26.590Z,66.01
2022-10-05T00:42:04.834Z,66.36
2022-10-05T00:44:42.837Z,66.13
2022-10-05T00:47:15.164Z,66.39
2022-10-05T00:49:49.490Z,66.47
2022-10-05T00:52:24.978Z,66.57
2022-10-05T00:55:17.668Z,66.45
2022-10-05T00:57:52.666Z,66.30
2022-10-05T01:00:19.985Z,66.46
2022-10-05T01:02:51.882Z,66.42
2022-10-05T01:05:24.417Z,66.38
2022-10-05T01:07:55.393Z,66.51
2022-10-05T01:10:45.005Z,66.46
2022-10-05T01:13:22.650Z,66.73
2022-10-05T01:15:52.006Z,66.24
2022-10-05T01:18:22.008Z,66.48
2022-10-05T01:21:03.362Z,66.54
2022-10-05T01:23:48.666Z,66.31
2022-10-05T01:26:21.050Z,66.31
2022-10-05T01:28:50.553Z,66.38
2022-10-05T01:31:29.485Z,66.55
2022-10-05T01:34:25.263Z,66.43
2022-10-05T01:36:57.327Z,66.71
2022-10-05T01:39:23.631Z,66.87
2022-10-05T01:42:00.476Z,66.50
2022-10-05T01:44:30.616Z,66.72
2022-10-05T01:47:08.331Z,66.86
2022-10-05T01:49:37.739Z,66.82
2022-10-05T01:52:22.857Z,66.96
2022-10-05T01:55:01.685Z,66.94
2022-10-05T01:58:00.265Z,66.92
2022-10-05T02:00:28.161Z,67.06
2022-10-05T02:03:02.893Z,67.11
2022-10-05T02:05:33.365Z,66.89
2022-10-05T02:08:10.097Z,66.69
2022-10-05T02:10:40.282Z,66.57
2022-10-05T02:13:18.451Z,66.58
2022-10-05T02:15:46.539Z,66.53
2022-10-05T02:18:23.960Z,66.56
2022-10-05T02:20:52.391Z,67.02
2022-10-05T02:23:20.960Z,66.89
2022-10-05T02:25:49.320Z,67.02
2022-10-05T02:28:21.783Z,67.06
2022-10-05T02:31:00.560Z,67.06
2022-10-05T02:33:31.492Z,67.34
2022-10-05T02:36:02.343Z,67.36
2022-10-05T02:38:59.253Z,67.30
2022-10-05T02:41:34.601Z,67.07
2022-10-05T02:44:20.105Z,67.01
2022-10-05T02:46:57.383Z,67.26
2022-10-05T02:49:35.807Z,67.20
2022-10-05T02:52:18.867Z,67.41
2022-10-05T02:55:03.345Z,67.14
2022-10-05T02:57:29.668Z,67.26
2022-10-05T03:00:14.489Z,67.46
2022-10-05T03:02:59.765Z,67.48
2022-10-05T03:05:30.699Z,67.70
2022-10-05T03:08:02.254Z,67.92
2022-10-05T03:10:34.313Z,67.95
2022-10-05T03:13:05.396Z,67.94
2022-10-05T03:15:40.590Z,67.91
2022-10-05T03:18:10.011Z,68.02
2022-10-05T03:20:46.952Z,67.90
2022-10-05T03:23:33.604Z,67.90
2022-10-05T03:26:11.204Z,68.01
2022-10-05T03:29:00.549Z,67.99
2022-10-05T03:31:38.064Z,67.80
2022-10-05T03:34:04.377Z,67.67
2022-10-05T03:36:44.657Z,67.77
2022-10-05T03:39:19.084Z,67.86
2022-10-05T03:41:48.521Z,67.80
2022-10-05T03:44:14.807Z,67.93
2022-10-05T03:46:50.522Z,68.03
2022-10-05T03:49:35.218Z,68.25
2022-10-05T03:52:14.638Z,67.98
2022-10-05T03:54:49.924Z,67.92
2022-10-05T03:57:24.045Z,68.08
2022-10-05T03:59:56.288Z,68.01
2022-10-05T04:02:32.243Z,67.88
2022-10-05T04:05:10.689Z,67.81
2022-10-05T04:07:40.381Z,67.84
2022-10-05T04:10:14.679Z,67.70
2022-10-05T04:12:43.784Z,67.24
2022-10-05T04:15:28.867Z,67.33
2022-10-05T04:17:59.672Z,67.21
2022-10-05T04:20:30.508Z,67.17
2022-10-05T04:23:15.659Z,66.98
2022-10-05T04:25:45.297Z,66.94
2022-10-05T04:28:17.725Z,67.04
2022-10-05T04:30:46.277Z,66.94
2022-10-05T04:33:13.610Z,66.82
2022-10-05T04:35:39.902Z,66.86
2022-10-05T04:38:06.195Z,66.94
2022-10-05T04:40:51.354Z,67.03
2022-10-05T04:43:17.628Z,66.98
2022-10-05T04:45:43.938Z,67.17
2022-10-05T04:48:23.885Z,67.53
2022-10-05T04:50:56.331Z,67.20
2022-10-05T04:53:35.713Z,67.16
2022-10-05T04:56:07.867Z,66.97
2022-10-05T04:58:43.139Z,67.22
2022-10-05T05:01:29.259Z,67.35
2022-10-05T05:04:14.835Z,67.34
2022-10-05T05:06:50.257Z,67.32
2022-10-05T05:09:35.099Z,67.53
2022-10-05T05:12:10.507Z,67.49
2022-10-05T05:14:49.270Z,67.36
2022-10-05T05:17:24.864Z,67.54
2022-10-05T05:19:54.185Z,67.51
2022-10-05T05:22:28.925Z,67.64
2022-10-05T05:24:58.248Z,67.85
2022-10-05T05:27:40.696Z,67.32
2022-10-05T05:30:14.260Z,67.08
2022-10-05T05:32:40.576Z,67.06
2022-10-05T05:35:26.098Z,67.01
2022-10-05T05:37:55.291Z,66.93
2022-10-05T05:40:30.489Z,66.98
2022-10-05T05:43:02.368Z,67.11
2022-10-05T05:45:28.698Z,66.88
2022-10-05T05:47:58.661Z,67.02
2022-10-05T05:50:33.890Z,66.94
2022-10-05T05:53:09.869Z,67.05
2022-10-05T05:55:40.433Z,66.95
2022-10-05T05:58:12.762Z,66.84
2022-10-05T06:00:44.550Z,66.96
2022-10-05T06:03:13.439Z,66.79
2022-10-05T06:05:55.151Z,66.77
2022-10-05T06:08:42.138Z,66.92
2022-10-05T06:11:12.484Z,66.92
2022-10-05T06:13:41.135Z,66.64
2022-10-05T06:16:15.339Z,66.56
2022-10-05T06:18:44.622Z,66.51
2022-10-05T06:21:23.268Z,66.49
2022-10-05T06:23:54.090Z,66.65
2022-10-05T06:26:26.667Z,66.43
2022-10-05T06:29:04.542Z,66.55
2022-10-05T06:31:30.910Z,66.27
2022-10-05T06:34:15.312Z,66.71
2022-10-05T06:36:53.360Z,66.60
2022-10-05T06:39:40.352Z,66.56
2022-10-05T06:42:25.177Z,66.82
2022-10-05T06:44:58.040Z,66.64
2022-10-05T06:47:39.703Z,66.80
2022-10-05T06:50:09.745Z,66.72
2022-10-05T06:52:50.054Z,66.95
2022-10-05T06:55:23.197Z,67.01
2022-10-05T06:57:58.791Z,67.03
2022-10-05T07:00:32.608Z,67.17
2022-10-05T07:03:17.595Z,67.10
2022-10-05T07:05:47.205Z,67.33
2022-10-05T07:08:16.220Z,67.38
2022-10-05T07:10:59.193Z,67.46
2022-10-05T07:13:44.245Z,67.17
2022-10-05T07:16:10.571Z,67.08
2022-10-05T07:19:00.212Z,67.06
2022-10-05T07:21:39.426Z,67.00
2022-10-05T07:24:11.794Z,66.88
2022-10-05T07:26:45.576Z,67.03
2022-10-05T07:29:22.495Z,66.80
2022-10-05T07:31:58.636Z,66.74
2022-10-05T07:34:39.616Z,66.75
2022-10-05T07:37:30.816Z,66.65
2022-10-05T07:40:00.422Z,66.86
2022-10-05T07:42:48.837Z,67.08
2022-10-05T07:45:24.564Z,66.69
2022-10-05T07:48:10.081Z,66.40
2022-10-05T07:50:55.167Z,66.40
2022-10-05T07:53:28.614Z,66.27
2022-10-05T07:55:57.647Z,66.31
2022-10-05T07:58:30.286Z,66.22
2022-10-05T08:01:01.770Z,66.03
2022-10-05T08:03:43.424Z,65.95
2022-10-05T08:06:16.421Z,65.92
2022-10-05T08:08:48.338Z,65.76
2022-10-05T08:11:17.552Z,65.59
2022-10-05T08:14:00.347Z,65.67
2022-10-05T08:16:28.145Z,65.48
2022-10-05T08:18:57.159Z,65.38
2022-10-05T08:21:27.543Z,65.26
2022-10-05T08:24:04.055Z,64.95
2022-10-05T08:26:36.417Z,64.80
2022-10-05T08:29:09.183Z,64.49
2022-10-05T08:31:41.735Z,64.27
2022-10-05T08:34:21.514Z,64.17
2022-10-05T08:36:55.704Z,64.12
2022-10-05T08:39:24.526Z,64.13
2022-10-05T08:42:09.569Z,63.97
2022-10-05T08:44:35.856Z,63.84
2022-10-05T08:47:21.138Z,63.68
2022-10-05T08:49:47.473Z,63.73
2022-10-05T08:52:25.865Z,63.58
2022-10-05T08:55:10.671Z,63.77
2022-10-05T08:57:56.372Z,63.42
2022-10-05T09:00:23.901Z,63.60
2022-10-05T09:03:04.840Z,63.41
2022-10-05T09:05:49.622Z,63.62
2022-10-05T09:08:29.780Z,63.17
2022-10-05T09:11:05.092Z,63.36
2022-10-05T09:13:37.558Z,63.20
2022-10-05T09:16:30.029Z,63.45
2022-10-05T09:18:59.775Z,63.01
2022-10-05T09:21:38.352Z,62.82
2022-10-05T09:24:21.946Z,62.22
2022-10-05T09:27:03.646Z,62.30
2022-10-05T09:29:32.968Z,62.26
2022-10-05T09:32:12.946Z,62.39
2022-10-05T09:34:54.028Z,62.25
2022-10-05T09:37:38.754Z,62.29
2022-10-05T09:40:17.321Z,62.00
2022-10-05T09:42:50.948Z,61.72
2022-10-05T09:45:29.325Z,61.86
2022-10-05T09:47:59.781Z,61.67
2022-10-05T09:50:45.563Z,61.55
2022-10-05T09:53:17.697Z,61.58
2022-10-05T09:56:09.562Z,61.19
2022-10-05T09:58:35.875Z,60.84
2022-10-05T10:01:29.231Z,60.14
2022-10-05T10:04:07.944Z,60.25
2022-10-05T10:06:37.220Z,60.28
2022-10-05T10:09:04.254Z,60.13
2022-10-05T10:11:40.532Z,59.25
2022-10-05T10:14:09.840Z,58.79
2022-10-05T10:16:41.390Z,58.87
2022-10-05T10:19:26.413Z,58.37
2022-10-05T10:22:11.112Z,58.22
2022-10-05T10:24:56.431Z,57.69
2022-10-05T10:27:27.502Z,57.65
2022-10-05T10:30:25.133Z,57.47
2022-10-05T10:33:11.209Z,57.33
2022-10-05T10:35:43.576Z,57.45
2022-10-05T10:38:16.048Z,57.09
2022-10-05T10:41:01.151Z,57.12
2022-10-05T10:43:43.770Z,57.29
2022-10-05T10:46:29.168Z,56.94
2022-10-05T10:48:57.535Z,57.32
2022-10-05T10:51:36.049Z,57.72
2022-10-05T10:54:13.547Z,57.31
2022-10-05T10:56:47.725Z,57.82
2022-10-05T10:59:26.551Z,57.70
2022-10-05T11:02:20.241Z,57.40
2022-10-05T11:05:04.450Z,57.15
2022-10-05T11:07:33.880Z,57.82
2022-10-05T11:10:07.204Z,57.48
2022-10-05T11:12:36.616Z,57.58
2022-10-05T11:15:05.930Z,57.79
2022-10-05T11:17:50.626Z,57.50
2022-10-05T11:20:35.808Z,57.58
2022-10-05T11:23:27.762Z,58.35
2022-10-05T11:26:12.097Z,58.16
2022-10-05T11:28:50.833Z,58.28
2022-10-05T11:31:44.105Z,58.37
2022-10-05T11:34:16.637Z,58.30
2022-10-05T11:37:02.028Z,58.05
2022-10-05T11:39:36.716Z,58.52
2022-10-05T11:42:21.687Z,58.88
2022-10-05T11:44:47.981Z,58.88
2022-10-05T11:47:17.358Z,59.19
2022-10-05T11:49:46.747Z,59.20
2022-10-05T11:52:19.098Z,59.52
2022-10-05T11:55:11.429Z,59.42
2022-10-05T11:57:53.647Z,59.54
2022-10-05T12:00:21.436Z,59.95
2022-10-05T12:03:17.281Z,59.89
2022-10-05T12:05:56.020Z,59.87
2022-10-05T12:08:38.127Z,59.86
2022-10-05T12:11:24.419Z,59.66
2022-10-05T12:13:58.034Z,60.02
2022-10-05T12:16:38.078Z,59.70
2022-10-05T12:19:13.483Z,59.94
2022-10-05T12:21:44.586Z,59.76
2022-10-05T12:24:23.376Z,60.09
2022-10-05T12:26:58.712Z,60.04
2022-10-05T12:29:34.219Z,59.90
2022-10-05T12:32:03.152Z,59.56
2022-10-05T12:34:44.501Z,59.89
2022-10-05T12:37:26.066Z,59.42
2022-10-05T12:39:57.909Z,59.57
2022-10-05T12:42:28.386Z,59.52
2022-10-05T12:45:05.496Z,59.51
2022-10-05T12:47:44.494Z,59.49
2022-10-05T12:50:13.660Z,59.46
2022-10-05T12:52:55.936Z,59.22
2022-10-05T12:55:29.537Z,59.21
2022-10-05T12:57:58.877Z,58.95
2022-10-05T13:00:25.371Z,58.92
2022-10-05T13:03:00.002Z,59.24
2022-10-05T13:05:31.579Z,58.79
2022-10-05T13:08:18.982Z,58.65
2022-10-05T13:10:47.760Z,58.64
2022-10-05T13:13:34.493Z,58.28
2022-10-05T13:16:36.512Z,57.61
2022-10-05T13:19:30.744Z,57.36
2022-10-05T13:22:04.364Z,57.18
2022-10-05T13:24:52.309Z,57.06
2022-10-05T13:27:22.168Z,56.71
2022-10-05T13:29:59.421Z,56.31
2022-10-05T13:32:29.432Z,56.16
2022-10-05T13:35:11.414Z,56.67
2022-10-05T13:37:38.007Z,56.26
2022-10-05T13:40:13.395Z,56.26
2022-10-05T13:42:44.260Z,56.13
2022-10-05T13:45:13.764Z,56.17
2022-10-05T13:48:01.872Z,56.71
2022-10-05T13:50:42.749Z,56.47
2022-10-05T13:53:27.202Z,56.31
2022-10-05T13:56:12.590Z,56.48
2022-10-05T13:58:41.595Z,56.80
2022-10-05T14:01:14.163Z,56.92
2022-10-05T14:03:40.935Z,56.95
2022-10-05T14:06:29.779Z,57.15
2022-10-05T14:08:59.887Z,57.57
2022-10-05T14:11:34.838Z,57.85
2022-10-05T14:14:04.424Z,57.85
2022-10-05T14:16:30.988Z,57.72
2022-10-05T14:18:57.427Z,57.81
2022-10-05T14:21:28.757Z,57.63
2022-10-05T14:23:58.688Z,57.45
2022-10-05T14:26:32.766Z,56.77
2022-10-05T14:29:19.496Z,56.42
2022-10-05T14:31:52.987Z,56.54
2022-10-05T14:34:39.732Z,56.85
2022-10-05T14:37:22.972Z,56.34
2022-10-05T14:39:50.321Z,56.38
2022-10-05T14:42:18.942Z,56.53
2022-10-05T14:44:46.126Z,56.25
2022-10-05T14:47:17.598Z,56.55
2022-10-05T14:50:15.963Z,57.02
2022-10-05T14:52:51.724Z,56.49
2022-10-05T14:55:18.276Z,56.22
2022-10-05T14:57:58.249Z,56.56
2022-10-05T15:00:25.924Z,57.37
2022-10-05T15:02:55.532Z,57.57
2022-10-05T15:05:43.720Z,57.71
2022-10-05T15:08:30.343Z,58.41
2022-10-05T15:11:00.640Z,58.32
2022-10-05T15:13:33.375Z,58.10
2022-10-05T15:16:03.327Z,58.30
2022-10-05T15:18:41.872Z,58.10
2022-10-05T15:21:21.497Z,58.50
2022-10-05T15:23:54.341Z,58.45
2022-10-05T15:26:29.605Z,58.58
2022-10-05T15:29:01.692Z,57.96
2022-10-05T15:32:04.743Z,57.64
2022-10-05T15:34:50.063Z,57.08
2022-10-05T15:37:35.192Z,56.98
2022-10-05T15:40:06.764Z,56.59
2022-10-05T15:42:36.390Z,56.30
2022-10-05T15:45:06.343Z,56.41
2022-10-05T15:47:44.844Z,56.74
2022-10-05T15:50:19.495Z,56.96
2022-10-05T15:53:04.704Z,56.67
2022-10-05T15:55:35.103Z,56.35
2022-10-05T15:58:10.135Z,56.44
2022-10-05T16:00:40.330Z,56.48
2022-10-05T16:03:06.992Z,57.01
2022-10-05T16:05:59.032Z,56.64
2022-10-05T16:08:50.826Z,56.65
2022-10-05T16:11:26.285Z,56.46
2022-10-05T16:14:18.510Z,56.62
2022-10-05T16:17:01.068Z,57.10
2022-10-05T16:19:47.177Z,57.20
2022-10-05T16:22:33.144Z,57.43
2022-10-05T16:25:02.397Z,57.70
2022-10-05T16:27:35.956Z,57.78
2022-10-05T16:30:05.336Z,58.41
2022-10-05T16:32:43.798Z,58.01
2022-10-05T16:35:17.282Z,57.69
2022-10-05T16:38:02.434Z,57.44
2022-10-05T16:40:32.273Z,57.21
2022-10-05T16:42:58.704Z,57.51
2022-10-05T16:45:29.435Z,57.59
2022-10-05T16:47:55.703Z,57.69
2022-10-05T16:50:21.998Z,57.41
2022-10-05T16:52:54.528Z,57.71
2022-10-05T16:55:26.897Z,57.64
2022-10-05T16:57:56.701Z,57.66
2022-10-05T17:00:27.504Z,57.73
2022-10-05T17:03:03.059Z,57.40
2022-10-05T17:05:38.550Z,57.53
2022-10-05T17:08:26.536Z,57.47
2022-10-05T17:11:16.674Z,57.20
2022-10-05T17:13:43.513Z,57.41
2022-10-05T17:16:19.830Z,57.29
2022-10-05T17:18:55.262Z,57.15
2022-10-05T17:21:24.573Z,57.43
2022-10-05T17:23:55.942Z,57.65
2022-10-05T17:26:41.192Z,57.70
2022-10-05T17:29:27.756Z,57.54
2022-10-05T17:32:20.557Z,57.69
2022-10-05T17:35:00.386Z,57.80
2022-10-05T17:37:26.673Z,58.01
2022-10-05T17:39:54.385Z,58.18
2022-10-05T17:42:43.566Z,58.20
2022-10-05T17:45:10.806Z,58.50
2022-10-05T17:47:55.297Z,58.51
2022-10-05T17:50:55.874Z,58.49
2022-10-05T17:53:53.433Z,58.61
2022-10-05T17:56:20.474Z,59.33
2022-10-05T17:58:46.814Z,59.04
2022-10-05T18:01:14.768Z,59.20
2022-10-05T18:03:42.568Z,59.32
2022-10-05T18:06:28.319Z,59.43
2022-10-05T18:09:13.709Z,59.75
2022-10-05T18:11:44.118Z,59.61
2022-10-05T18:14:20.562Z,59.46
2022-10-05T18:17:01.770Z,59.69
2022-10-05T18:19:32.152Z,60.25
2022-10-05T18:22:00.663Z,60.04
2022-10-05T18:24:37.645Z,60.33
2022-10-05T18:27:04.054Z,60.81
2022-10-05T18:30:05.056Z,60.99
2022-10-05T18:32:55.085Z,61.06
2022-10-05T18:35:24.475Z,61.25
2022-10-05T18:38:05.601Z,61.39
2022-10-05T18:40:42.022Z,61.34
2022-10-05T18:43:26.993Z,61.60
2022-10-05T18:45:56.382Z,61.99
2022-10-05T18:48:29.309Z,61.97
2022-10-05T18:51:01.321Z,62.28
2022-10-05T18:53:37.012Z,62.18
2022-10-05T18:56:12.245Z,62.85
2022-10-05T18:58:56.894Z,62.93
2022-10-05T19:01:42.351Z,62.37
2022-10-05T19:04:27.488Z,62.36
2022-10-05T19:06:53.805Z,62.35
2022-10-05T19:09:26.273Z,62.80
2022-10-05T19:12:01.174Z,62.12
2022-10-05T19:14:41.132Z,62.39
2022-10-05T19:17:10.582Z,62.42
2022-10-05T19:19:43.705Z,62.13
2022-10-05T19:22:29.175Z,62.54
2022-10-05T19:25:15.730Z,62.56
2022-10-05T19:28:00.753Z,62.31
2022-10-05T19:30:30.071Z,62.60
2022-10-05T19:33:05.556Z,62.43
2022-10-05T19:35:44.160Z,62.66
2022-10-05T19:38:15.720Z,62.46
2022-10-05T19:40:42.248Z,63.02
2022-10-05T19:43:11.663Z,62.64
2022-10-05T19:45:46.290Z,63.85
2022-10-05T19:48:13.754Z,63.80
2022-10-05T19:50:51.582Z,64.40
2022-10-05T19:53:37.705Z,65.80
2022-10-05T19:56:20.580Z,67.34
2022-10-05T19:58:48.266Z,68.57
2022-10-05T20:01:24.906Z,70.55
2022-10-05T20:03:52.048Z,72.41
2022-10-05T20:06:19.911Z,73.21
2022-10-05T20:08:47.510Z,74.74
2022-10-05T20:11:15.349Z,75.33
2022-10-05T20:13:43.193Z,76.16
2022-10-05T20:16:33.008Z,76.71
2022-10-05T20:19:17.948Z,75.60
2022-10-05T20:21:59.788Z,75.29
2022-10-05T20:24:27.319Z,75.49
2022-10-05T20:27:05.316Z,75.24
2022-10-05T20:29:33.735Z,75.06
2022-10-05T20:32:03.238Z,75.01
2022-10-05T20:34:47.663Z,74.68
2022-10-05T20:37:15.399Z,74.36
2022-10-05T20:39:42.727Z,74.40
2022-10-05T20:42:09.795Z,74.40
2022-10-05T20:44:36.734Z,74.57
2022-10-05T20:47:04.047Z,74.24
2022-10-05T20:49:31.841Z,74.25
2022-10-05T20:51:58.800Z,74.43
2022-10-05T20:54:26.753Z,74.63
2022-10-05T20:56:56.574Z,74.67
2022-10-05T20:59:23.585Z,75.15
2022-10-05T21:01:50.546Z,74.64
2022-10-05T21:04:18.289Z,75.00
2022-10-05T21:06:46.024Z,74.95
2022-10-05T21:09:19.246Z,74.86
2022-10-05T21:11:47.547Z,74.83
2022-10-05T21:14:15.572Z,74.83
2022-10-05T21:16:43.370Z,74.51
2022-10-05T21:19:12.389Z,74.61
2022-10-05T21:21:40.579Z,74.80
2022-10-05T21:24:07.576Z,74.92
2022-10-05T21:26:34.464Z,74.54
2022-10-05T21:29:03.703Z,74.49
2022-10-05T21:31:30.197Z,74.40
2022-10-05T21:33:56.719Z,74.25
2022-10-05T21:36:24.852Z,74.12
2022-10-05T21:38:53.455Z,74.00
2022-10-05T21:41:20.185Z,73.85
2022-10-05T21:43:47.241Z,73.87
2022-10-05T21:46:18.427Z,73.97
2022-10-05T21:48:45.489Z,73.79
2022-10-05T21:51:16.541Z,74.02
2022-10-05T21:53:47.296Z,74.50
2022-10-05T21:56:15.515Z,74.42
2022-10-05T21:58:43.622Z,74.14
2022-10-05T22:01:10.018Z,74.25
2022-10-05T22:03:37.652Z,74.29
2022-10-05T22:06:04.632Z,74.06
2022-10-05T22:08:32.855Z,74.20
2022-10-05T22:11:00.126Z,74.01
2022-10-05T22:13:27.310Z,74.33
2022-10-05T22:15:57.644Z,74.06
2022-10-05T22:18:25.440Z,74.37
2022-10-05T22:20:53.203Z,74.07
2022-10-05T22:23:20.489Z,74.99
2022-10-05T22:25:47.961Z,74.29
2022-10-05T22:28:16.364Z,74.65
2022-10-05T22:30:44.915Z,74.87
2022-10-05T22:33:13.157Z,74.69
2022-10-05T22:35:40.266Z,74.63
2022-10-05T22:38:08.249Z,74.93
2022-10-05T22:40:35.873Z,74.80
2022-10-05T22:43:03.195Z,75.16
2022-10-05T22:45:32.592Z,75.32
2022-10-05T22:47:59.377Z,75.18
2022-10-05T22:50:25.900Z,75.15
2022-10-05T22:52:52.785Z,75.07
2022-10-05T22:55:19.204Z,75.33
2022-10-05T22:57:46.331Z,75.34
2022-10-05T23:00:13.063Z,75.48
2022-10-05T23:02:40.279Z,75.08
2022-10-05T23:05:07.202Z,75.18
2022-10-05T23:07:37.866Z,74.87
2022-10-05T23:10:05.761Z,75.16
2022-10-05T23:12:34.655Z,75.08
2022-10-05T23:15:01.786Z,75.16
2022-10-05T23:17:30.218Z,75.37
2022-10-05T23:19:57.856Z,75.57
2022-10-05T23:22:25.259Z,75.41
2022-10-05T23:24:52.101Z,75.50
2022-10-05T23:27:18.446Z,75.32
2022-10-05T23:29:44.745Z,75.68
2022-10-05T23:32:11.123Z,76.17
2022-10-05T23:34:37.571Z,76.54
2022-10-05T23:37:04.027Z,76.29
2022-10-05T23:39:30.399Z,76.41
2022-10-05T23:41:56.708Z,76.90
2022-10-05T23:44:23.048Z,76.45
2022-10-05T23:46:49.373Z,76.85
2022-10-05T23:49:15.736Z,76.63
2022-10-05T23:51:42.385Z,76.66
2022-10-05T23:54:08.699Z,76.61
2022-10-05T23:56:35.152Z,76.39
2022-10-05T23:59:01.521Z,76.36
